Tamara — HOEH — position and weather

sailwx.info

Track history (hours):
 
Tides and Currents Weather Stations Pressure Air Temp Water Temp Dewpoint Dewpoint Depression Visibility Wind Speed Wind Dir Waves Ship Positions

Tamara

Last reported at 2017-Aug-11 06:53 UTC. Time now 2017-Aug-16 19:49 UTC.
Position N 40°40' E 018°01'.

Length 117 m; draft 6.5 m.

Type: Ship (hazmat cat A). MMSI: 353900000.

Date/timePositionNaut miles runAvg speedWind from/ knotsBaromVisibWave heightAir tempDewpointWater temp
2017-Aug-11 06:53N 40°40' E 018°01'4 9.7
2017-Aug-11 06:30N 40°40' E 018°06'2 4.6
2017-Aug-11 06:00N 40°38' E 018°07'0 0.4
2017-Aug-11 05:28N 40°38' E 018°06'0 0.0
2017-Aug-11 04:58N 40°38' E 018°06'0 0.0
2017-Aug-11 04:28N 40°38' E 018°06'0 0.1
2017-Aug-11 03:58N 40°38' E 018°06'0 0.0
2017-Aug-11 03:28N 40°38' E 018°06'0 0.1
2017-Aug-11 02:58N 40°38' E 018°06'0 0.1
2017-Aug-11 02:28N 40°38' E 018°06'0 0.0
2017-Aug-11 01:58N 40°38' E 018°06'0 0.0
2017-Aug-11 01:28N 40°38' E 018°06'0 0.0
2017-Aug-11 00:58N 40°38' E 018°06'0 0.0
2017-Aug-11 00:28N 40°38' E 018°06'0 0.0
2017-Aug-10 23:58N 40°38' E 018°06'0 0.0
2017-Aug-10 23:28N 40°38' E 018°06'0 0.0
2017-Aug-10 22:58N 40°38' E 018°06'0 0.1
2017-Aug-10 22:28N 40°38' E 018°06'0 0.1
2017-Aug-10 21:58N 40°38' E 018°06'0 0.0
2017-Aug-10 21:28N 40°38' E 018°06'0 0.0
2017-Aug-10 20:58N 40°38' E 018°06'0 0.0
2017-Aug-10 20:28N 40°38' E 018°06'0 0.0
2017-Aug-10 19:55N 40°38' E 018°06'0 0.0
2017-Aug-10 19:28N 40°38' E 018°06'0 0.1
2017-Aug-10 19:00N 40°38' E 018°06'2 4.5
2017-Aug-10 18:30N 40°38' E 018°09'5 9.9
2017-Aug-10 18:00N 40°35' E 018°15'611.4
2017-Aug-10 17:30N 40°32' E 018°20'612.7
2017-Aug-10 17:00N 40°27' E 018°27'713.4
2017-Aug-10 16:29N 40°23' E 018°34'713.5
2017-Aug-10 16:00N 40°18' E 018°39'813.5
2017-Aug-10 15:26N 40°12' E 018°45'613.5
2017-Aug-10 15:00N 40°07' E 018°49'913.5
2017-Aug-10 14:21N 40°00' E 018°57'  
2017-Aug-04 17:15N 33°49' E 031°43'613.3
2017-Aug-04 16:46N 33°53' E 031°49'413.3
2017-Aug-04 16:27N 33°55' E 031°54'813.6
2017-Aug-04 15:51N 33°60' E 032°02'2613.4
2017-Aug-04 13:56N 34°12' E 032°29'913.5
2017-Aug-04 13:17N 34°17' E 032°38'413.5
2017-Aug-04 12:59N 34°19' E 032°42'613.2
2017-Aug-04 12:31N 34°22' E 032°49'812.9
2017-Aug-04 11:54N 34°26' E 032°57'512.9
2017-Aug-04 11:30N 34°29' E 033°02'710.7
2017-Aug-04 10:53N 34°34' E 033°07'512.2
2017-Aug-04 10:30N 34°39' E 033°05'1 2.5
2017-Aug-04 09:58N 34°40' E 033°05'0 0.0
2017-Aug-04 09:28N 34°40' E 033°05'0 0.0
2017-Aug-04 08:58N 34°40' E 033°05'0 0.0
2017-Aug-04 08:28N 34°40' E 033°05'0 0.0
2017-Aug-04 07:58N 34°40' E 033°05'0 0.0
2017-Aug-04 07:28N 34°40' E 033°05'0 0.1
2017-Aug-04 06:58N 34°40' E 033°04'0 0.0
2017-Aug-04 06:28N 34°40' E 033°04'0 0.0
2017-Aug-04 05:58N 34°40' E 033°04'0 0.0
2017-Aug-04 05:28N 34°40' E 033°04'0 0.1
2017-Aug-04 04:58N 34°40' E 033°04'0 0.0
2017-Aug-04 04:28N 34°40' E 033°04'0 0.1
2017-Aug-04 03:52N 34°40' E 033°04'0 0.1
2017-Aug-04 03:28N 34°40' E 033°04'0 0.0
2017-Aug-04 02:58N 34°40' E 033°05'0 0.0
2017-Aug-04 00:34N 34°40' E 033°05'0 0.1
2017-Aug-04 00:28N 34°40' E 033°05'0 0.1
2017-Aug-03 23:58N 34°40' E 033°05'0 0.0
2017-Aug-03 23:28N 34°40' E 033°05'0 0.0
2017-Aug-03 22:58N 34°40' E 033°05'0 0.0
2017-Aug-03 22:22N 34°40' E 033°05'0 0.0
2017-Aug-03 20:16N 34°40' E 033°05'0 0.0
2017-Aug-03 19:28N 34°40' E 033°05'0 0.0
2017-Aug-03 18:52N 34°40' E 033°05'0 0.0
2017-Aug-03 18:28N 34°40' E 033°05'0 0.0
2017-Aug-03 17:58N 34°40' E 033°05'0 0.0
2017-Aug-03 17:28N 34°40' E 033°05'0 0.0
2017-Aug-03 16:58N 34°40' E 033°05'0 0.0
2017-Aug-03 16:22N 34°40' E 033°05'0 0.0
2017-Aug-03 15:58N 34°40' E 033°05'0 0.0
2017-Aug-03 15:22N 34°40' E 033°05'0 0.0
2017-Aug-03 14:55N 34°40' E 033°05'0 0.0
2017-Aug-03 13:58N 34°40' E 033°05'0 0.0
2017-Aug-03 13:28N 34°40' E 033°05'0 0.0
2017-Aug-03 12:55N 34°40' E 033°05'0 0.0
2017-Aug-03 12:28N 34°40' E 033°05'0 0.0
2017-Aug-03 11:58N 34°40' E 033°05'0 0.0
2017-Aug-03 11:28N 34°40' E 033°05'0 0.0
2017-Aug-03 10:58N 34°40' E 033°05'0 0.0
2017-Aug-03 10:28N 34°40' E 033°05'0 0.0
2017-Aug-03 09:58N 34°40' E 033°05'0 0.0
2017-Aug-03 09:28N 34°40' E 033°05'0 0.0
2017-Aug-03 08:58N 34°40' E 033°05'0 0.0
2017-Aug-03 08:28N 34°40' E 033°05'0 0.0
2017-Aug-03 07:58N 34°40' E 033°05'0 0.0
2017-Aug-03 07:28N 34°40' E 033°05'0 0.0
2017-Aug-03 06:58N 34°40' E 033°05'0 0.0
2017-Aug-03 06:28N 34°40' E 033°05'0 0.0
2017-Aug-03 05:58N 34°40' E 033°05'0 0.0
2017-Aug-03 05:28N 34°40' E 033°05'0 0.0
2017-Aug-03 04:58N 34°40' E 033°05'0 0.0
2017-Aug-03 04:28N 34°40' E 033°04'0 0.1
2017-Aug-03 03:55N 34°40' E 033°04'0 0.1
2017-Aug-03 03:28N 34°40' E 033°04'0 0.0
2017-Aug-03 02:58N 34°40' E 033°04'0 0.0
2017-Aug-03 02:28N 34°40' E 033°04'0 0.0
2017-Aug-02 22:01N 34°40' E 033°04'0 0.1
2017-Aug-02 21:40N 34°40' E 033°04'0 0.0
2017-Aug-02 21:28N 34°40' E 033°04'0 0.1
2017-Aug-02 20:58N 34°40' E 033°04'0 0.0
2017-Aug-02 20:28N 34°40' E 033°05'0 0.0
2017-Aug-02 17:31N 34°40' E 033°05'0 0.0
2017-Aug-02 17:10N 34°40' E 033°05'0 0.0
2017-Aug-02 16:58N 34°40' E 033°05'0 0.0
2017-Aug-02 16:28N 34°40' E 033°05'0 0.0
2017-Aug-02 15:43N 34°40' E 033°05'0 0.0
2017-Aug-02 14:48N 34°40' E 033°05'0 0.0
2017-Aug-02 13:30N 34°40' E 033°05'0 0.0
2017-Aug-02 12:54N 34°40' E 033°05'0 0.0
2017-Aug-02 12:30N 34°40' E 033°05'0 0.0
2017-Aug-02 12:00N 34°40' E 033°05'0 0.1
2017-Aug-02 11:30N 34°40' E 033°04'0 0.0
2017-Aug-02 11:00N 34°40' E 033°05'0 0.0
2017-Aug-02 09:27N 34°40' E 033°05'0 0.0
2017-Aug-02 07:36N 34°40' E 033°05'0 0.0
2017-Aug-02 03:12N 34°40' E 033°05'  
Track history (hours):
 
Tides and Currents Weather Stations Pressure Air Temp Water Temp Dewpoint Dewpoint Depression Visibility Wind Speed Wind Dir Waves Ship Positions

Tamara

Last reported at 2017-Aug-11 06:53 UTC. Time now 2017-Aug-16 19:49 UTC.
Position N 40°40' E 018°01'.

Length 117 m; draft 6.5 m.

Type: Ship (hazmat cat A). MMSI: 353900000.

Date/timePositionNaut miles runAvg speedWind from/ knotsBaromVisibWave heightAir tempDewpointWater temp
2017-Aug-11 06:53N 40°40' E 018°01'4 9.7
2017-Aug-11 06:30N 40°40' E 018°06'2 4.6
2017-Aug-11 06:00N 40°38' E 018°07'0 0.4
2017-Aug-11 05:28N 40°38' E 018°06'0 0.0
2017-Aug-11 04:58N 40°38' E 018°06'0 0.0
2017-Aug-11 04:28N 40°38' E 018°06'0 0.1
2017-Aug-11 03:58N 40°38' E 018°06'0 0.0
2017-Aug-11 03:28N 40°38' E 018°06'0 0.1
2017-Aug-11 02:58N 40°38' E 018°06'0 0.1
2017-Aug-11 02:28N 40°38' E 018°06'0 0.0
2017-Aug-11 01:58N 40°38' E 018°06'0 0.0
2017-Aug-11 01:28N 40°38' E 018°06'0 0.0
2017-Aug-11 00:58N 40°38' E 018°06'0 0.0
2017-Aug-11 00:28N 40°38' E 018°06'0 0.0
2017-Aug-10 23:58N 40°38' E 018°06'0 0.0
2017-Aug-10 23:28N 40°38' E 018°06'0 0.0
2017-Aug-10 22:58N 40°38' E 018°06'0 0.1
2017-Aug-10 22:28N 40°38' E 018°06'0 0.1
2017-Aug-10 21:58N 40°38' E 018°06'0 0.0
2017-Aug-10 21:28N 40°38' E 018°06'0 0.0
2017-Aug-10 20:58N 40°38' E 018°06'0 0.0
2017-Aug-10 20:28N 40°38' E 018°06'0 0.0
2017-Aug-10 19:55N 40°38' E 018°06'0 0.0
2017-Aug-10 19:28N 40°38' E 018°06'0 0.1
2017-Aug-10 19:00N 40°38' E 018°06'2 4.5
2017-Aug-10 18:30N 40°38' E 018°09'5 9.9
2017-Aug-10 18:00N 40°35' E 018°15'611.4
2017-Aug-10 17:30N 40°32' E 018°20'612.7
2017-Aug-10 17:00N 40°27' E 018°27'713.4
2017-Aug-10 16:29N 40°23' E 018°34'713.5
2017-Aug-10 16:00N 40°18' E 018°39'813.5
2017-Aug-10 15:26N 40°12' E 018°45'613.5
2017-Aug-10 15:00N 40°07' E 018°49'913.5
2017-Aug-10 14:21N 40°00' E 018°57'  
2017-Aug-04 17:15N 33°49' E 031°43'613.3
2017-Aug-04 16:46N 33°53' E 031°49'413.3
2017-Aug-04 16:27N 33°55' E 031°54'813.6
2017-Aug-04 15:51N 33°60' E 032°02'2613.4
2017-Aug-04 13:56N 34°12' E 032°29'913.5
2017-Aug-04 13:17N 34°17' E 032°38'413.5
2017-Aug-04 12:59N 34°19' E 032°42'613.2
2017-Aug-04 12:31N 34°22' E 032°49'812.9
2017-Aug-04 11:54N 34°26' E 032°57'512.9
2017-Aug-04 11:30N 34°29' E 033°02'710.7
2017-Aug-04 10:53N 34°34' E 033°07'512.2
2017-Aug-04 10:30N 34°39' E 033°05'1 2.5
2017-Aug-04 09:58N 34°40' E 033°05'0 0.0
2017-Aug-04 09:28N 34°40' E 033°05'0 0.0
2017-Aug-04 08:58N 34°40' E 033°05'0 0.0
2017-Aug-04 08:28N 34°40' E 033°05'0 0.0
2017-Aug-04 07:58N 34°40' E 033°05'0 0.0
2017-Aug-04 07:28N 34°40' E 033°05'0 0.1
2017-Aug-04 06:58N 34°40' E 033°04'0 0.0
2017-Aug-04 06:28N 34°40' E 033°04'0 0.0
2017-Aug-04 05:58N 34°40' E 033°04'0 0.0
2017-Aug-04 05:28N 34°40' E 033°04'0 0.1
2017-Aug-04 04:58N 34°40' E 033°04'0 0.0
2017-Aug-04 04:28N 34°40' E 033°04'0 0.1
2017-Aug-04 03:52N 34°40' E 033°04'0 0.1
2017-Aug-04 03:28N 34°40' E 033°04'0 0.0
2017-Aug-04 02:58N 34°40' E 033°05'0 0.0
2017-Aug-04 00:34N 34°40' E 033°05'0 0.1
2017-Aug-04 00:28N 34°40' E 033°05'0 0.1
2017-Aug-03 23:58N 34°40' E 033°05'0 0.0
2017-Aug-03 23:28N 34°40' E 033°05'0 0.0
2017-Aug-03 22:58N 34°40' E 033°05'0 0.0
2017-Aug-03 22:22N 34°40' E 033°05'0 0.0
2017-Aug-03 20:16N 34°40' E 033°05'0 0.0
2017-Aug-03 19:28N 34°40' E 033°05'0 0.0
2017-Aug-03 18:52N 34°40' E 033°05'0 0.0
2017-Aug-03 18:28N 34°40' E 033°05'0 0.0
2017-Aug-03 17:58N 34°40' E 033°05'0 0.0
2017-Aug-03 17:28N 34°40' E 033°05'0 0.0
2017-Aug-03 16:58N 34°40' E 033°05'0 0.0
2017-Aug-03 16:22N 34°40' E 033°05'0 0.0
2017-Aug-03 15:58N 34°40' E 033°05'0 0.0
2017-Aug-03 15:22N 34°40' E 033°05'0 0.0
2017-Aug-03 14:55N 34°40' E 033°05'0 0.0
2017-Aug-03 13:58N 34°40' E 033°05'0 0.0
2017-Aug-03 13:28N 34°40' E 033°05'0 0.0
2017-Aug-03 12:55N 34°40' E 033°05'0 0.0
2017-Aug-03 12:28N 34°40' E 033°05'0 0.0
2017-Aug-03 11:58N 34°40' E 033°05'0 0.0
2017-Aug-03 11:28N 34°40' E 033°05'0 0.0
2017-Aug-03 10:58N 34°40' E 033°05'0 0.0
2017-Aug-03 10:28N 34°40' E 033°05'0 0.0
2017-Aug-03 09:58N 34°40' E 033°05'0 0.0
2017-Aug-03 09:28N 34°40' E 033°05'0 0.0
2017-Aug-03 08:58N 34°40' E 033°05'0 0.0
2017-Aug-03 08:28N 34°40' E 033°05'0 0.0
2017-Aug-03 07:58N 34°40' E 033°05'0 0.0
2017-Aug-03 07:28N 34°40' E 033°05'0 0.0
2017-Aug-03 06:58N 34°40' E 033°05'0 0.0
2017-Aug-03 06:28N 34°40' E 033°05'0 0.0
2017-Aug-03 05:58N 34°40' E 033°05'0 0.0
2017-Aug-03 05:28N 34°40' E 033°05'0 0.0
2017-Aug-03 04:58N 34°40' E 033°05'0 0.0
2017-Aug-03 04:28N 34°40' E 033°04'0 0.1
2017-Aug-03 03:55N 34°40' E 033°04'0 0.1
2017-Aug-03 03:28N 34°40' E 033°04'0 0.0
2017-Aug-03 02:58N 34°40' E 033°04'0 0.0
2017-Aug-03 02:28N 34°40' E 033°04'0 0.0
2017-Aug-02 22:01N 34°40' E 033°04'0 0.1
2017-Aug-02 21:40N 34°40' E 033°04'0 0.0
2017-Aug-02 21:28N 34°40' E 033°04'0 0.1
2017-Aug-02 20:58N 34°40' E 033°04'0 0.0
2017-Aug-02 20:28N 34°40' E 033°05'0 0.0
2017-Aug-02 17:31N 34°40' E 033°05'0 0.0
2017-Aug-02 17:10N 34°40' E 033°05'0 0.0
2017-Aug-02 16:58N 34°40' E 033°05'0 0.0
2017-Aug-02 16:28N 34°40' E 033°05'0 0.0
2017-Aug-02 15:43N 34°40' E 033°05'0 0.0
2017-Aug-02 14:48N 34°40' E 033°05'0 0.0
2017-Aug-02 13:30N 34°40' E 033°05'0 0.0
2017-Aug-02 12:54N 34°40' E 033°05'0 0.0
2017-Aug-02 12:30N 34°40' E 033°05'0 0.0
2017-Aug-02 12:00N 34°40' E 033°05'0 0.1
2017-Aug-02 11:30N 34°40' E 033°04'0 0.0
2017-Aug-02 11:00N 34°40' E 033°05'0 0.0
2017-Aug-02 09:27N 34°40' E 033°05'0 0.0
2017-Aug-02 07:36N 34°40' E 033°05'0 0.0
2017-Aug-02 03:12N 34°40' E 033°05'  

Dump ship's entire track history